Time;durP1;ratioP1;P1;durP2;ratioP2;P2;SDS_P1;SDS_P2;PMS_P1;PMS_P2;Temp;Humidity;BMP_temperature;BMP_pressure;BME280_temperature;BME280_humidity;BME280_pressure;Samples;Min_cycle;Max_cycle;Signal;HPM_P1;HPM_P2
2021/03/31 00:01:38;;;;;;;27.35;18.00;;;9.60;85.00;;;;;;5013273;28;20445;-65
2021/03/31 00:04:04;;;;;;;28.38;17.35;;;9.60;85.10;;;;;;5013205;28;20030;-66
2021/03/31 00:06:29;;;;;;;28.73;18.08;;;9.50;85.00;;;;;;5013496;28;20046;-65
2021/03/31 00:08:55;;;;;;;31.23;18.17;;;9.50;85.00;;;;;;5013467;28;20026;-65
2021/03/31 00:11:21;;;;;;;28.10;17.83;;;9.50;84.80;;;;;;5012878;28;20044;-65
2021/03/31 00:13:46;;;;;;;28.70;16.30;;;9.60;84.30;;;;;;5013335;28;20018;-65
2021/03/31 00:16:12;;;;;;;26.10;17.13;;;9.60;83.60;;;;;;5013509;28;20075;-65
2021/03/31 00:18:37;;;;;;;31.60;17.88;;;9.60;83.50;;;;;;5012366;28;20072;-65
2021/03/31 00:21:03;;;;;;;29.17;18.98;;;9.60;82.80;;;;;;5013308;28;20037;-64
2021/03/31 00:23:30;;;;;;;27.88;17.33;;;9.70;82.80;;;;;;5013088;28;20026;-64
2021/03/31 00:25:56;;;;;;;25.73;17.67;;;9.70;82.90;;;;;;5012839;28;20036;-64
2021/03/31 00:28:22;;;;;;;26.55;16.35;;;9.70;83.00;;;;;;5012927;28;20013;-65
2021/03/31 00:30:48;;;;;;;26.60;16.77;;;9.70;83.50;;;;;;5011461;28;20048;-64
2021/03/31 00:33:15;;;;;;;26.15;16.85;;;9.70;82.50;;;;;;5012468;28;20018;-64
2021/03/31 00:35:41;;;;;;;26.92;16.60;;;9.70;82.60;;;;;;5012830;28;20022;-64
2021/03/31 00:38:07;;;;;;;28.80;17.35;;;9.80;82.50;;;;;;5013438;28;20541;-65
2021/03/31 00:40:39;;;;;;;29.13;17.45;;;9.80;82.10;;;;;;5012097;28;20037;-64
2021/03/31 00:43:05;;;;;;;25.00;16.95;;;9.80;81.50;;;;;;5013124;28;20021;-64
2021/03/31 00:45:31;;;;;;;30.42;18.48;;;9.80;81.80;;;;;;5012079;28;20034;-65
2021/03/31 00:47:57;;;;;;;26.02;17.50;;;9.80;81.60;;;;;;5013033;28;20032;-64
2021/03/31 00:50:23;;;;;;;25.40;17.05;;;9.70;81.90;;;;;;5012959;28;20113;-63
2021/03/31 00:52:50;;;;;;;24.35;16.80;;;9.70;82.40;;;;;;5011954;28;20480;-64
2021/03/31 00:55:18;;;;;;;25.63;17.38;;;9.70;82.60;;;;;;5011389;28;20137;-64
2021/03/31 00:57:44;;;;;;;29.45;17.45;;;9.70;82.70;;;;;;5012512;28;20017;-65
2021/03/31 01:00:11;;;;;;;27.65;18.25;;;9.70;82.30;;;;;;5012172;28;20018;-65
2021/03/31 01:02:38;;;;;;;26.65;18.33;;;9.70;82.50;;;;;;5012349;28;20049;-64
2021/03/31 01:05:12;;;;;;;27.30;18.25;;;9.70;82.80;;;;;;5012758;28;20129;-64
2021/03/31 01:07:38;;;;;;;25.35;17.35;;;9.60;82.90;;;;;;5011853;28;20112;-65
2021/03/31 01:10:05;;;;;;;26.73;17.08;;;9.60;83.10;;;;;;5012580;28;20037;-64
2021/03/31 01:12:47;;;;;;;26.17;18.17;;;9.50;83.10;;;;;;5011155;28;20026;-64
2021/03/31 01:15:33;;;;;;;25.13;17.60;;;9.40;83.50;;;;;;5012076;28;20545;-64
2021/03/31 01:18:31;;;;;;;25.45;18.17;;;9.40;83.70;;;;;;5012840;28;20029;-64
2021/03/31 01:21:23;;;;;;;28.35;17.63;;;9.40;84.00;;;;;;5011299;28;20046;-64
2021/03/31 01:23:51;;;;;;;28.40;18.83;;;9.40;84.20;;;;;;5012207;28;20030;-64
2021/03/31 01:26:34;;;;;;;26.27;17.77;;;9.40;84.00;;;;;;5013038;28;20034;-65
2021/03/31 01:29:18;;;;;;;24.17;17.20;;;9.30;84.20;;;;;;5011754;28;20072;-65
2021/03/31 01:31:59;;;;;;;27.17;17.63;;;9.30;84.20;;;;;;5010883;28;20052;-64
2021/03/31 01:34:41;;;;;;;25.65;17.65;;;9.30;84.30;;;;;;5011302;28;20474;-64
2021/03/31 01:37:34;;;;;;;26.02;18.33;;;9.20;84.10;;;;;;5012519;28;20025;-64
2021/03/31 01:40:03;;;;;;;26.98;18.17;;;9.10;84.60;;;;;;5012707;28;20064;-64
2021/03/31 01:42:32;;;;;;;33.97;19.02;;;9.10;84.70;;;;;;5015500;28;20033;-64
2021/03/31 01:45:01;;;;;;;31.70;19.73;;;9.00;85.00;;;;;;5016276;28;20092;-65
2021/03/31 01:47:30;;;;;;;25.67;17.58;;;9.00;85.30;;;;;;5016042;28;20076;-65
2021/03/31 01:49:57;;;;;;;27.75;17.63;;;9.00;85.50;;;;;;5014147;28;20057;-64
2021/03/31 01:52:24;;;;;;;26.35;18.30;;;8.90;85.60;;;;;;5016364;28;20022;-65
2021/03/31 01:54:51;;;;;;;28.85;18.50;;;8.90;85.70;;;;;;5015861;28;20101;-65
2021/03/31 01:57:17;;;;;;;28.77;19.45;;;8.90;85.70;;;;;;5015333;28;20465;-65
2021/03/31 01:59:46;;;;;;;26.77;18.48;;;8.80;85.90;;;;;;5015744;28;20060;-64
2021/03/31 02:02:13;;;;;;;27.17;18.83;;;8.80;86.00;;;;;;5015765;28;20046;-65
2021/03/31 02:04:40;;;;;;;27.17;19.20;;;8.70;85.90;;;;;;5015011;28;20063;-65
2021/03/31 02:07:10;;;;;;;27.35;18.52;;;8.70;86.20;;;;;;5014683;28;20045;-64
2021/03/31 02:09:42;;;;;;;27.02;18.52;;;8.70;86.40;;;;;;5015455;28;20038;-65
2021/03/31 02:12:08;;;;;;;;;;;8.60;86.50;;;;;;5015996;28;20386;-65
2021/03/31 02:14:38;;;;;;;29.50;19.13;;;8.50;86.50;;;;;;5015481;28;20401;-66
2021/03/31 02:17:07;;;;;;;28.50;19.20;;;8.50;86.50;;;;;;5015165;28;20037;-66
2021/03/31 02:19:33;;;;;;;27.70;19.00;;;8.50;86.70;;;;;;5015380;28;20435;-65
2021/03/31 02:22:00;;;;;;;28.13;18.92;;;8.50;86.90;;;;;;5015433;28;20018;-66
2021/03/31 02:24:27;;;;;;;29.50;19.98;;;8.40;86.90;;;;;;5014646;28;20113;-64
2021/03/31 02:26:52;;;;;;;30.00;19.70;;;8.40;86.70;;;;;;5015459;28;20021;-66
2021/03/31 02:29:18;;;;;;;28.00;18.92;;;8.40;86.70;;;;;;5015528;28;20541;-65
2021/03/31 02:31:45;;;;;;;30.15;19.98;;;8.40;86.80;;;;;;5014360;28;20466;-64
2021/03/31 02:34:14;;;;;;;28.30;18.85;;;8.40;86.90;;;;;;5015444;28;20045;-65
2021/03/31 02:36:40;;;;;;;28.27;18.80;;;8.40;87.10;;;;;;5015068;28;20030;-66
2021/03/31 02:39:09;;;;;;;29.50;19.55;;;8.30;87.10;;;;;;5014664;28;20017;-66
2021/03/31 02:41:37;;;;;;;26.65;17.58;;;8.30;87.20;;;;;;5013617;28;20022;-66
2021/03/31 02:44:04;;;;;;;29.30;20.25;;;8.30;87.20;;;;;;5014053;28;20060;-65
2021/03/31 02:46:32;;;;;;;27.52;18.70;;;8.30;87.30;;;;;;5014299;28;20026;-65
2021/03/31 02:48:58;;;;;;;27.50;17.75;;;8.30;87.40;;;;;;5015172;28;20083;-65
2021/03/31 02:51:23;;;;;;;29.48;19.92;;;8.30;87.30;;;;;;5014858;28;20045;-65
2021/03/31 02:53:50;;;;;;;29.15;19.23;;;8.30;87.30;;;;;;5014020;28;20462;-64
2021/03/31 02:56:17;;;;;;;28.50;19.25;;;8.30;87.30;;;;;;5013631;28;20033;-65
2021/03/31 02:58:43;;;;;;;27.10;18.48;;;8.30;87.30;;;;;;5014562;28;20483;-65
2021/03/31 03:01:10;;;;;;;27.20;20.48;;;8.30;87.30;;;;;;5012807;28;20351;-63
2021/03/31 03:03:37;;;;;;;30.20;19.58;;;8.20;87.30;;;;;;5013087;28;20042;-63
2021/03/31 03:06:04;;;;;;;29.50;20.10;;;8.20;87.50;;;;;;5014181;28;20030;-64
2021/03/31 03:08:30;;;;;;;27.77;19.27;;;8.20;87.50;;;;;;5014255;28;20014;-64
2021/03/31 03:11:00;;;;;;;30.13;20.02;;;8.20;87.50;;;;;;5014743;28;20034;-64
2021/03/31 03:13:28;;;;;;;30.17;20.73;;;8.20;87.70;;;;;;5012411;28;20160;-64
2021/03/31 03:15:55;;;;;;;30.40;19.40;;;8.20;87.60;;;;;;5014666;28;20041;-64
2021/03/31 03:18:21;;;;;;;28.58;19.25;;;8.10;87.70;;;;;;5014596;28;20017;-65
2021/03/31 03:20:48;;;;;;;29.35;19.02;;;8.10;87.80;;;;;;5012230;28;20101;-65
2021/03/31 03:23:15;;;;;;;28.85;20.33;;;8.00;87.80;;;;;;5014397;28;20099;-65
2021/03/31 03:25:41;;;;;;;29.65;19.00;;;8.00;88.00;;;;;;5014091;28;20381;-65
2021/03/31 03:28:08;;;;;;;28.58;19.70;;;8.00;88.00;;;;;;5013746;28;20029;-64
2021/03/31 03:30:34;;;;;;;27.88;20.15;;;7.90;87.90;;;;;;5013971;28;20025;-65
2021/03/31 03:33:00;;;;;;;31.10;20.42;;;7.90;88.00;;;;;;5014430;28;20072;-64
2021/03/31 03:35:27;;;;;;;30.63;20.30;;;7.90;88.20;;;;;;5013308;28;20079;-64
2021/03/31 03:37:53;;;;;;;30.00;19.40;;;7.80;88.30;;;;;;5012879;28;20018;-65
2021/03/31 03:40:24;;;;;;;32.83;20.42;;;7.80;88.60;;;;;;5012832;28;20029;-65
2021/03/31 03:42:50;;;;;;;27.92;20.13;;;7.70;88.60;;;;;;5013170;28;20351;-64
2021/03/31 03:45:16;;;;;;;28.00;19.38;;;7.70;88.80;;;;;;5014063;28;20103;-64
2021/03/31 03:47:43;;;;;;;26.92;18.45;;;7.70;89.00;;;;;;5013681;28;20026;-64
2021/03/31 03:50:13;;;;;;;27.48;19.55;;;7.60;89.10;;;;;;5013188;28;20026;-65
2021/03/31 03:52:39;;;;;;;28.80;20.15;;;7.60;89.20;;;;;;5013715;28;20022;-65
2021/03/31 03:55:07;;;;;;;31.90;21.40;;;7.50;89.20;;;;;;5013804;28;20132;-65
2021/03/31 03:57:33;;;;;;;31.48;20.30;;;7.50;89.30;;;;;;5012884;28;20079;-65
2021/03/31 03:59:58;;;;;;;30.35;19.25;;;7.40;89.40;;;;;;5013689;28;20110;-65
2021/03/31 04:02:24;;;;;;;29.05;20.20;;;7.40;89.50;;;;;;5012915;28;20114;-65
2021/03/31 04:04:50;;;;;;;28.73;19.95;;;7.40;89.70;;;;;;5011593;28;20029;-64
2021/03/31 04:07:16;;;;;;;29.95;20.48;;;7.40;89.80;;;;;;5013699;28;20470;-65
2021/03/31 04:09:45;;;;;;;30.77;21.23;;;7.30;89.80;;;;;;5012345;28;20065;-65
2021/03/31 04:12:13;;;;;;;28.30;19.88;;;7.40;89.90;;;;;;5011473;28;20043;-64
2021/03/31 04:14:40;;;;;;;32.47;20.95;;;7.30;89.90;;;;;;5004397;28;20144;-65
2021/03/31 04:17:10;;;;;;;31.23;20.30;;;7.30;90.00;;;;;;4993381;28;20022;-64
2021/03/31 04:19:37;;;;;;;28.63;20.83;;;7.30;89.80;;;;;;5014902;28;20116;-63
2021/03/31 04:22:04;;;;;;;29.40;20.27;;;7.30;89.90;;;;;;5013214;28;20497;-64
2021/03/31 04:24:30;;;;;;;30.35;19.23;;;7.20;90.00;;;;;;5011177;28;20026;-64
2021/03/31 04:26:58;;;;;;;31.70;20.88;;;7.20;90.00;;;;;;4997738;28;20109;-64
2021/03/31 04:29:24;;;;;;;30.48;20.15;;;7.30;90.00;;;;;;4993762;28;20030;-64
2021/03/31 04:31:50;;;;;;;33.08;20.80;;;7.30;90.00;;;;;;4992569;28;20038;-63
2021/03/31 04:34:18;;;;;;;31.00;20.63;;;7.20;90.00;;;;;;4993632;28;20467;-63
2021/03/31 04:36:44;;;;;;;31.05;20.80;;;7.20;90.00;;;;;;4993326;28;20022;-63
2021/03/31 04:39:10;;;;;;;31.80;21.65;;;7.20;90.00;;;;;;4993300;28;20073;-64
2021/03/31 04:41:36;;;;;;;29.83;20.50;;;7.20;90.10;;;;;;4993593;28;20371;-64
2021/03/31 04:44:03;;;;;;;29.13;20.35;;;7.20;90.10;;;;;;4993911;28;20113;-64
2021/03/31 04:46:28;;;;;;;31.20;21.23;;;7.20;90.10;;;;;;4991740;28;20030;-63
2021/03/31 04:48:54;;;;;;;33.13;21.65;;;7.10;90.10;;;;;;5002355;28;20040;-64
2021/03/31 04:51:20;;;;;;;28.85;20.60;;;7.10;90.10;;;;;;5009462;28;20474;-64
2021/03/31 04:53:46;;;;;;;29.90;21.27;;;7.10;90.10;;;;;;5004096;28;20061;-63
2021/03/31 04:56:12;;;;;;;33.30;21.30;;;7.10;90.20;;;;;;5004312;28;20050;-63
2021/03/31 04:58:38;;;;;;;33.25;20.83;;;7.10;90.20;;;;;;5009415;28;20026;-64
2021/03/31 05:01:04;;;;;;;29.48;21.27;;;7.10;90.20;;;;;;5003316;28;20018;-65
2021/03/31 05:03:29;;;;;;;32.25;22.08;;;7.10;90.20;;;;;;4993058;28;20407;-63
2021/03/31 05:05:55;;;;;;;32.88;21.13;;;7.10;90.30;;;;;;5002290;28;20106;-63
2021/03/31 05:08:20;;;;;;;29.85;20.85;;;7.00;90.30;;;;;;5005087;28;20033;-64
2021/03/31 05:10:46;;;;;;;31.25;21.23;;;7.00;90.30;;;;;;5012834;28;20487;-64
2021/03/31 05:13:13;;;;;;;36.20;21.02;;;7.00;90.30;;;;;;5004894;28;20037;-63
2021/03/31 05:15:38;;;;;;;33.05;21.20;;;7.00;90.30;;;;;;5021953;28;20401;-63
2021/03/31 05:18:05;;;;;;;33.45;22.00;;;7.00;90.30;;;;;;5025355;28;20013;-64
2021/03/31 05:20:30;;;;;;;29.83;20.63;;;7.00;90.40;;;;;;5034678;28;20033;-64
2021/03/31 05:22:56;;;;;;;30.55;19.98;;;7.00;90.30;;;;;;5014479;28;20045;-64
2021/03/31 05:25:21;;;;;;;33.47;21.60;;;7.10;90.30;;;;;;5003709;28;20038;-64
2021/03/31 05:27:47;;;;;;;30.88;21.30;;;7.10;90.30;;;;;;5005897;28;20018;-64
2021/03/31 05:30:13;;;;;;;36.83;23.45;;;7.10;90.30;;;;;;5000776;28;20034;-63
2021/03/31 05:32:39;;;;;;;34.20;22.75;;;7.10;90.30;;;;;;5016529;28;20064;-64
2021/03/31 05:35:06;;;;;;;29.63;20.20;;;7.10;90.30;;;;;;5009243;28;20019;-64
2021/03/31 05:37:31;;;;;;;35.65;22.73;;;7.10;90.40;;;;;;5016798;28;20105;-64
2021/03/31 05:39:57;;;;;;;31.35;21.42;;;7.10;90.30;;;;;;5036260;28;20461;-65
2021/03/31 05:42:23;;;;;;;31.50;21.23;;;7.10;90.30;;;;;;5036035;28;20033;-64
2021/03/31 05:44:49;;;;;;;33.28;21.40;;;7.20;90.30;;;;;;5036011;28;20072;-64
2021/03/31 05:47:27;;;;;;;35.58;23.23;;;7.20;90.40;;;;;;5036327;28;20389;-64
2021/03/31 05:49:53;;;;;;;32.08;20.70;;;7.20;90.70;;;;;;5017810;28;20046;-64
2021/03/31 05:52:20;;;;;;;29.23;20.85;;;7.20;90.40;;;;;;4996809;28;20023;-64
2021/03/31 05:54:45;;;;;;;33.75;20.90;;;7.20;90.30;;;;;;5005984;28;20572;-64
2021/03/31 05:57:11;;;;;;;33.55;22.00;;;7.20;90.40;;;;;;5014679;28;20026;-64
2021/03/31 05:59:37;;;;;;;29.77;21.00;;;7.30;90.40;;;;;;5016199;28;20045;-64
2021/03/31 06:02:05;;;;;;;30.27;21.25;;;7.30;90.40;;;;;;5015573;28;20046;-63
2021/03/31 06:04:31;;;;;;;29.02;20.17;;;7.40;90.30;;;;;;5015912;28;20109;-63
2021/03/31 06:06:56;;;;;;;31.30;20.98;;;7.50;90.20;;;;;;5016134;28;20049;-63
2021/03/31 06:09:22;;;;;;;28.77;20.92;;;7.60;90.20;;;;;;5014892;28;20496;-64
2021/03/31 06:11:59;;;;;;;30.25;20.23;;;7.70;90.10;;;;;;4999402;28;20105;-63
2021/03/31 06:14:33;;;;;;;34.83;21.73;;;7.70;90.10;;;;;;4999955;28;20041;-64
2021/03/31 06:17:15;;;;;;;31.02;21.40;;;7.80;90.00;;;;;;4997212;28;20038;-64
2021/03/31 06:19:43;;;;;;;34.88;20.60;;;7.90;89.60;;;;;;5005633;28;20097;-64
2021/03/31 06:25:17;;;;;;;28.95;20.48;;;8.20;88.70;;;;;;4997929;28;20125;-63
2021/03/31 06:27:58;;;;;;;27.50;19.50;;;8.30;88.10;;;;;;5005273;28;20030;-65
2021/03/31 06:30:25;;;;;;;31.83;19.45;;;8.40;87.70;;;;;;4994930;28;20085;-63
2021/03/31 06:32:53;;;;;;;37.75;21.73;;;8.60;87.50;;;;;;5013302;28;20018;-66
2021/03/31 06:35:24;;;;;;;35.63;20.13;;;8.70;87.00;;;;;;5015267;28;20101;-65
2021/03/31 06:37:50;;;;;;;33.70;19.42;;;8.80;86.40;;;;;;5013417;28;20042;-67
2021/03/31 06:40:35;;;;;;;31.00;20.38;;;8.90;85.90;;;;;;5011526;28;20865;-65
2021/03/31 06:43:13;;;;;;;29.58;19.92;;;9.10;85.30;;;;;;5000738;28;20426;-64
2021/03/31 06:45:46;;;;;;;33.13;20.05;;;9.20;84.80;;;;;;4994483;28;20072;-63
2021/03/31 06:48:11;;;;;;;29.77;18.02;;;9.30;84.50;;;;;;4995246;28;20053;-63
2021/03/31 06:50:37;;;;;;;30.05;18.27;;;9.40;84.00;;;;;;4994892;28;20070;-64
2021/03/31 06:53:05;;;;;;;31.13;19.35;;;9.50;83.40;;;;;;4994833;28;20109;-64
2021/03/31 06:55:31;;;;;;;31.48;18.67;;;9.60;82.60;;;;;;4994704;28;20026;-64
2021/03/31 06:58:00;;;;;;;33.35;17.50;;;9.70;82.10;;;;;;4994962;28;20034;-63
2021/03/31 07:00:29;;;;;;;28.85;17.52;;;9.90;81.60;;;;;;4994232;28;20030;-66
2021/03/31 07:03:00;;;;;;;27.13;17.60;;;10.00;81.00;;;;;;5014522;28;20042;-66
2021/03/31 07:05:37;;;;;;;26.90;16.63;;;10.10;80.50;;;;;;5013604;28;20146;-67
2021/03/31 07:08:08;;;;;;;27.30;17.42;;;10.20;79.90;;;;;;5001664;28;20057;-66
2021/03/31 07:10:47;;;;;;;26.73;16.98;;;10.30;79.60;;;;;;5014403;28;20040;-68
2021/03/31 07:13:27;;;;;;;28.63;16.42;;;10.50;78.90;;;;;;5013936;28;20054;-69
2021/03/31 07:15:53;;;;;;;27.95;16.85;;;10.60;78.50;;;;;;5014578;28;20061;-68
2021/03/31 07:18:21;;;;;;;22.75;15.43;;;10.70;78.40;;;;;;5014582;28;20061;-68
2021/03/31 07:20:47;;;;;;;25.63;16.83;;;10.80;77.80;;;;;;5012407;28;20030;-63
2021/03/31 07:23:13;;;;;;;29.00;17.92;;;10.90;77.20;;;;;;5000513;28;20022;-63
2021/03/31 07:25:39;;;;;;;26.75;16.30;;;11.00;76.60;;;;;;4995415;28;20088;-64
2021/03/31 07:28:06;;;;;;;29.27;16.67;;;11.10;76.20;;;;;;4994996;28;20117;-65
2021/03/31 07:30:32;;;;;;;29.10;17.45;;;11.20;75.70;;;;;;4994247;28;20034;-64
2021/03/31 07:33:01;;;;;;;25.63;16.40;;;11.40;75.10;;;;;;4994538;28;20038;-65
2021/03/31 07:35:29;;;;;;;24.50;16.52;;;11.50;74.10;;;;;;5001683;28;20382;-67
2021/03/31 07:37:59;;;;;;;24.60;15.65;;;11.60;73.30;;;;;;5010795;28;20077;-67
2021/03/31 07:40:25;;;;;;;27.63;16.23;;;11.80;72.60;;;;;;4995348;28;20116;-68
2021/03/31 07:43:10;;;;;;;19.83;14.85;;;11.90;72.00;;;;;;4993192;28;20471;-67
2021/03/31 07:45:45;;;;;;;27.63;16.08;;;12.00;71.40;;;;;;5009263;28;20036;-66
2021/03/31 07:48:12;;;;;;;24.05;16.25;;;12.20;70.70;;;;;;5006388;28;20027;-66
2021/03/31 07:50:37;;;;;;;23.02;16.77;;;12.30;70.40;;;;;;4994692;28;20042;-67
2021/03/31 07:53:03;;;;;;;23.55;16.50;;;12.40;70.10;;;;;;4993077;28;20073;-66
2021/03/31 07:55:35;;;;;;;27.05;15.65;;;12.50;70.50;;;;;;4991930;28;20027;-67
2021/03/31 07:58:12;;;;;;;23.48;15.80;;;12.60;69.30;;;;;;4993772;28;20015;-67
2021/03/31 08:00:53;;;;;;;23.67;16.10;;;12.60;69.00;;;;;;4993565;28;20479;-66
2021/03/31 08:03:24;;;;;;;22.08;15.98;;;12.80;68.60;;;;;;4992062;28;20050;-66
2021/03/31 08:06:00;;;;;;;;;;;12.90;68.30;;;;;;5000420;28;20022;-66
2021/03/31 08:08:25;;;;;;;25.30;15.77;;;13.00;68.30;;;;;;5001847;28;20362;-65
2021/03/31 08:10:51;;;;;;;27.25;16.35;;;13.10;67.60;;;;;;4993862;28;20039;-66
2021/03/31 08:13:38;;;;;;;21.20;14.75;;;13.20;67.30;;;;;;4993962;28;20026;-67
2021/03/31 08:16:27;;;;;;;21.92;16.00;;;13.30;67.10;;;;;;4993075;28;20503;-67
2021/03/31 08:18:55;;;;;;;22.23;15.63;;;13.40;67.10;;;;;;4993722;28;20037;-65
2021/03/31 08:21:22;;;;;;;25.42;16.58;;;13.50;67.10;;;;;;5005232;28;20049;-65
2021/03/31 08:23:49;;;;;;;20.63;14.85;;;13.60;66.70;;;;;;4992676;28;20101;-66
2021/03/31 08:26:35;;;;;;;24.83;17.42;;;13.70;66.30;;;;;;4999083;28;20113;-64
2021/03/31 08:29:07;;;;;;;20.88;16.48;;;13.90;65.80;;;;;;5004346;28;20052;-66
2021/03/31 08:31:38;;;;;;;27.45;16.55;;;14.00;65.30;;;;;;4992475;28;20490;-67
2021/03/31 08:34:04;;;;;;;28.25;16.70;;;14.10;64.80;;;;;;4992156;28;20076;-67
2021/03/31 08:36:30;;;;;;;22.60;16.35;;;14.20;64.20;;;;;;4998223;28;20073;-69
2021/03/31 08:38:57;;;;;;;23.00;16.75;;;14.30;63.80;;;;;;4994498;28;20049;-66
2021/03/31 08:41:25;;;;;;;21.63;15.75;;;14.40;63.60;;;;;;5007434;28;20137;-68
2021/03/31 08:44:09;;;;;;;24.92;16.90;;;14.50;63.90;;;;;;4991471;28;20026;-66
2021/03/31 08:46:35;;;;;;;25.20;16.88;;;14.60;63.40;;;;;;4992792;28;20098;-66
2021/03/31 08:49:00;;;;;;;24.55;16.70;;;14.70;62.80;;;;;;4998605;28;20033;-66
2021/03/31 08:51:26;;;;;;;25.55;16.60;;;14.80;63.00;;;;;;4997834;28;20038;-66
2021/03/31 08:53:51;;;;;;;24.70;17.33;;;14.90;62.80;;;;;;5008860;28;20089;-67
2021/03/31 08:56:22;;;;;;;26.65;17.25;;;15.10;62.10;;;;;;5012732;28;20087;-66
2021/03/31 08:58:51;;;;;;;24.52;17.13;;;15.20;61.20;;;;;;4991171;28;20033;-68
2021/03/31 09:01:31;;;;;;;22.40;16.92;;;15.30;61.00;;;;;;4991767;28;20019;-67
2021/03/31 09:04:19;;;;;;;25.00;16.83;;;15.50;61.20;;;;;;5001514;28;20033;-66
2021/03/31 09:06:44;;;;;;;19.95;15.68;;;15.60;60.10;;;;;;5011527;28;20084;-67
2021/03/31 09:09:10;;;;;;;21.77;16.98;;;15.70;59.50;;;;;;5007059;28;20022;-68
2021/03/31 09:11:36;;;;;;;23.63;17.17;;;15.90;59.30;;;;;;5012089;28;20030;-66
2021/03/31 09:14:22;;;;;;;25.85;18.45;;;15.90;59.60;;;;;;5004370;28;20434;-66
2021/03/31 09:16:49;;;;;;;28.55;17.98;;;16.10;58.70;;;;;;4992578;28;20030;-67
2021/03/31 09:19:15;;;;;;;29.38;17.15;;;16.30;58.60;;;;;;4992006;28;20152;-65
2021/03/31 09:21:41;;;;;;;24.85;16.85;;;16.30;58.50;;;;;;4992309;28;20060;-65
2021/03/31 09:24:12;;;;;;;22.33;17.75;;;16.40;58.60;;;;;;5002937;28;20517;-66
2021/03/31 09:26:38;;;;;;;22.50;16.25;;;16.50;58.90;;;;;;4990670;28;20383;-66
2021/03/31 09:29:13;;;;;;;27.73;17.40;;;16.70;59.10;;;;;;4999135;28;20076;-65
2021/03/31 09:31:40;;;;;;;21.90;15.75;;;16.90;58.70;;;;;;5010902;28;20030;-64
2021/03/31 09:34:06;;;;;;;24.65;16.58;;;17.00;58.70;;;;;;5011777;28;20022;-66
2021/03/31 09:36:31;;;;;;;25.15;17.17;;;17.10;57.90;;;;;;5011840;28;20028;-65
2021/03/31 09:38:57;;;;;;;22.40;16.63;;;17.30;57.00;;;;;;5012087;28;20094;-66
2021/03/31 09:41:22;;;;;;;23.45;17.30;;;17.40;56.90;;;;;;5003453;28;20058;-67
2021/03/31 09:43:48;;;;;;;26.08;16.42;;;17.50;56.50;;;;;;4992529;28;20538;-66
2021/03/31 09:46:14;;;;;;;24.00;16.55;;;17.60;57.00;;;;;;4992798;28;20089;-64
2021/03/31 09:48:40;;;;;;;25.88;18.13;;;17.70;57.00;;;;;;4991441;28;20105;-68
2021/03/31 09:51:13;;;;;;;21.88;16.25;;;17.80;56.60;;;;;;4992384;28;20061;-66
2021/03/31 09:53:40;;;;;;;23.92;17.05;;;17.90;55.70;;;;;;4990975;28;20092;-67
2021/03/31 09:56:08;;;;;;;26.33;17.38;;;17.90;55.50;;;;;;4991841;28;20027;-66
2021/03/31 09:58:35;;;;;;;23.98;15.85;;;18.00;55.70;;;;;;4992044;28;20435;-67
2021/03/31 10:01:01;;;;;;;21.38;15.90;;;18.10;55.70;;;;;;4998186;28;20084;-67
2021/03/31 10:03:29;;;;;;;21.17;14.60;;;18.10;55.20;;;;;;5002854;28;20058;-66
2021/03/31 10:05:54;;;;;;;24.98;15.73;;;18.20;55.60;;;;;;5014541;28;20076;-64
2021/03/31 10:08:22;;;;;;;30.30;18.33;;;18.40;55.40;;;;;;5008488;28;20034;-66
2021/03/31 10:10:55;;;;;;;24.23;17.00;;;18.50;55.10;;;;;;5011657;28;20038;-64
2021/03/31 10:13:24;;;;;;;22.70;16.92;;;18.60;53.70;;;;;;4996369;28;20022;-65
2021/03/31 10:16:00;;;;;;;22.80;17.33;;;18.60;53.70;;;;;;5001214;28;20098;-64
2021/03/31 10:18:27;;;;;;;26.65;17.42;;;18.70;53.70;;;;;;5006437;28;20036;-64
2021/03/31 10:20:57;;;;;;;24.05;16.70;;;18.70;53.40;;;;;;5006689;28;20021;-65
2021/03/31 10:23:27;;;;;;;26.17;16.85;;;18.80;53.20;;;;;;4994600;28;20027;-64
2021/03/31 10:26:13;;;;;;;23.77;16.20;;;18.90;53.00;;;;;;4995823;28;20030;-66
2021/03/31 10:28:39;;;;;;;24.52;17.15;;;19.00;53.10;;;;;;5002877;28;20414;-65
2021/03/31 10:31:36;;;;;;;24.70;17.15;;;19.00;53.00;;;;;;5015209;28;20064;-67
2021/03/31 10:34:03;;;;;;;20.08;15.43;;;19.10;52.80;;;;;;5007730;28;20022;-65
2021/03/31 10:36:36;;;;;;;20.60;14.57;;;19.20;52.20;;;;;;5013118;28;20057;-64
2021/03/31 10:49:51;;;;;;;21.80;15.38;;;19.60;50.20;;;;;;4994801;28;20038;-66
2021/03/31 10:52:23;;;;;;;19.90;14.25;;;19.70;50.10;;;;;;4996002;28;20042;-65
2021/03/31 10:54:49;;;;;;;20.05;14.75;;;19.70;50.50;;;;;;4995441;28;20037;-65
2021/03/31 10:57:14;;;;;;;18.10;14.90;;;19.80;50.30;;;;;;4995067;28;20022;-66
2021/03/31 10:59:40;;;;;;;22.52;14.35;;;19.90;49.90;;;;;;4995651;28;20037;-65
2021/03/31 11:02:07;;;;;;;20.38;15.23;;;19.90;49.10;;;;;;4995517;28;20398;-66
2021/03/31 11:04:32;;;;;;;19.00;15.00;;;20.00;48.40;;;;;;4994573;28;20470;-66
2021/03/31 11:06:58;;;;;;;21.17;14.80;;;20.10;47.60;;;;;;4994490;28;20098;-65
2021/03/31 11:09:24;;;;;;;22.27;15.90;;;20.10;47.60;;;;;;4993720;28;20033;-64
2021/03/31 11:11:51;;;;;;;24.08;16.90;;;20.20;47.50;;;;;;4994912;28;20018;-64
2021/03/31 11:14:18;;;;;;;23.42;16.50;;;20.30;47.70;;;;;;4995528;28;20360;-63
2021/03/31 11:16:49;;;;;;;23.40;15.57;;;20.30;47.60;;;;;;4994360;28;20029;-65
2021/03/31 11:25:33;;;;;;;18.73;14.55;;;20.40;48.70;;;;;;4994998;28;19913;-66
2021/03/31 11:27:32;;;;;;;24.70;16.27;;;20.60;47.80;;;;;;4994795;28;20497;-65
2021/03/31 11:29:58;;;;;;;20.85;15.85;;;20.70;46.90;;;;;;4994937;28;20038;-64
2021/03/31 11:32:25;;;;;;;25.23;17.27;;;20.70;46.80;;;;;;4993000;28;20018;-65
2021/03/31 11:34:50;;;;;;;20.42;15.43;;;20.80;46.20;;;;;;4994890;28;20030;-64
2021/03/31 11:37:16;;;;;;;21.65;15.05;;;20.90;45.80;;;;;;4995033;28;20026;-62
2021/03/31 11:39:41;;;;;;;23.00;16.40;;;20.90;45.40;;;;;;4992835;28;20058;-63
2021/03/31 11:42:07;;;;;;;25.98;16.02;;;21.00;44.80;;;;;;5002531;28;20065;-66
2021/03/31 11:44:32;;;;;;;26.05;16.05;;;21.00;45.20;;;;;;5006877;28;20105;-65
2021/03/31 11:46:58;;;;;;;23.08;15.20;;;21.10;45.80;;;;;;5001551;28;20100;-65
2021/03/31 11:49:24;;;;;;;20.70;15.55;;;21.10;45.50;;;;;;5004163;28;20497;-68
2021/03/31 11:51:49;;;;;;;19.75;14.57;;;21.20;44.50;;;;;;5003133;28;20104;-70
2021/03/31 11:54:15;;;;;;;18.10;14.25;;;21.20;44.10;;;;;;4994088;28;20060;-64
2021/03/31 11:56:40;;;;;;;19.25;14.57;;;21.20;45.40;;;;;;4992465;28;20076;-67
2021/03/31 11:59:07;;;;;;;19.38;14.90;;;21.20;44.80;;;;;;4992346;28;20045;-71
2021/03/31 12:01:37;;;;;;;20.98;14.48;;;21.30;44.50;;;;;;4992820;28;20533;-69
2021/03/31 12:04:02;;;;;;;21.17;14.93;;;21.40;44.70;;;;;;5001703;28;20045;-68
2021/03/31 12:06:28;;;;;;;21.48;13.25;;;21.40;44.10;;;;;;5012027;28;20061;-66
2021/03/31 12:08:54;;;;;;;21.65;15.88;;;21.60;43.00;;;;;;5012381;28;20466;-69
2021/03/31 12:11:19;;;;;;;22.08;15.70;;;21.60;42.40;;;;;;4993660;28;20050;-69
2021/03/31 12:13:45;;;;;;;21.33;14.02;;;21.70;42.60;;;;;;4992606;28;20850;-70
2021/03/31 12:16:11;;;;;;;21.13;14.18;;;21.70;43.20;;;;;;4992686;28;20118;-69
2021/03/31 12:18:36;;;;;;;21.08;15.32;;;21.80;43.00;;;;;;5001500;28;20109;-67
2021/03/31 12:21:03;;;;;;;19.88;13.90;;;21.80;43.10;;;;;;5004135;28;20073;-70
2021/03/31 12:23:28;;;;;;;20.83;14.32;;;21.90;43.20;;;;;;4993275;28;20026;-71
2021/03/31 12:25:55;;;;;;;23.75;16.67;;;22.00;43.10;;;;;;4992457;28;20026;-66
2021/03/31 12:28:24;;;;;;;23.25;15.02;;;22.00;42.80;;;;;;5008365;28;20402;-70
2021/03/31 12:30:50;;;;;;;22.05;14.18;;;22.00;40.80;;;;;;5010733;28;20033;-69
2021/03/31 12:33:15;;;;;;;21.75;15.10;;;22.10;40.70;;;;;;5011914;28;20437;-70
2021/03/31 12:35:41;;;;;;;21.33;15.70;;;22.10;40.00;;;;;;5011409;28;20038;-70
2021/03/31 12:38:06;;;;;;;20.05;15.70;;;22.20;40.10;;;;;;5012864;28;20022;-68
2021/03/31 12:40:32;;;;;;;20.33;16.02;;;22.20;40.70;;;;;;5001786;28;20041;-69
2021/03/31 12:42:58;;;;;;;22.05;15.73;;;22.30;40.90;;;;;;4991224;28;20092;-69
2021/03/31 12:45:23;;;;;;;23.08;15.55;;;22.40;40.80;;;;;;5009188;28;20033;-67
2021/03/31 12:47:49;;;;;;;25.30;16.65;;;22.50;40.90;;;;;;5011659;28;20568;-68
2021/03/31 12:50:17;;;;;;;21.88;15.82;;;22.50;40.40;;;;;;5008085;28;20042;-71
2021/03/31 12:52:55;;;;;;;21.63;15.73;;;22.50;40.20;;;;;;5014994;28;20045;-70
2021/03/31 12:55:28;;;;;;;23.52;16.55;;;22.50;40.00;;;;;;5005259;28;20030;-73
2021/03/31 12:57:58;;;;;;;26.42;16.10;;;22.40;40.10;;;;;;4992627;28;20031;-65
2021/03/31 13:00:24;;;;;;;23.20;16.73;;;22.40;40.00;;;;;;4992956;28;20033;-68